sensor_id;sensor_type;location;lat;lon;timestamp;P1;durP1;ratioP1;P2;durP2;ratioP2
57111;SDS011;42992;49.084;19.300;2022-12-05T01:03:36;11.90;;;7.25;;
57111;SDS011;42992;49.084;19.300;2022-12-05T01:06:01;10.77;;;6.65;;
57111;SDS011;42992;49.084;19.300;2022-12-05T01:08:27;11.10;;;6.60;;
57111;SDS011;42992;49.084;19.300;2022-12-05T01:10:53;12.02;;;7.68;;
57111;SDS011;42992;49.084;19.300;2022-12-05T01:13:18;14.07;;;7.93;;
57111;SDS011;42992;49.084;19.300;2022-12-05T01:15:43;12.43;;;7.22;;
57111;SDS011;42992;49.084;19.300;2022-12-05T01:18:09;13.40;;;7.38;;
57111;SDS011;42992;49.084;19.300;2022-12-05T01:20:37;13.77;;;7.70;;
57111;SDS011;42992;49.084;19.300;2022-12-05T01:23:04;12.00;;;7.65;;
57111;SDS011;42992;49.084;19.300;2022-12-05T01:25:30;12.15;;;7.97;;
57111;SDS011;42992;49.084;19.300;2022-12-05T01:27:55;11.98;;;7.60;;
57111;SDS011;42992;49.084;19.300;2022-12-05T01:30:20;12.98;;;8.02;;
57111;SDS011;42992;49.084;19.300;2022-12-05T01:32:46;13.70;;;8.55;;
57111;SDS011;42992;49.084;19.300;2022-12-05T01:35:11;12.68;;;7.15;;
57111;SDS011;42992;49.084;19.300;2022-12-05T01:37:37;11.18;;;7.43;;
57111;SDS011;42992;49.084;19.300;2022-12-05T01:40:02;14.52;;;7.55;;
57111;SDS011;42992;49.084;19.300;2022-12-05T01:42:28;12.15;;;6.95;;
57111;SDS011;42992;49.084;19.300;2022-12-05T01:47:19;11.77;;;6.05;;
57111;SDS011;42992;49.084;19.300;2022-12-05T01:49:46;11.45;;;6.25;;
57111;SDS011;42992;49.084;19.300;2022-12-05T01:52:19;9.32;;;5.45;;
57111;SDS011;42992;49.084;19.300;2022-12-05T01:54:46;8.90;;;5.57;;
57111;SDS011;42992;49.084;19.300;2022-12-05T01:57:12;9.00;;;5.03;;
57111;SDS011;42992;49.084;19.300;2022-12-05T01:59:46;8.05;;;5.32;;
57111;SDS011;42992;49.084;19.300;2022-12-05T02:02:13;9.10;;;5.35;;
57111;SDS011;42992;49.084;19.300;2022-12-05T02:04:43;8.75;;;5.28;;
57111;SDS011;42992;49.084;19.300;2022-12-05T02:07:10;8.75;;;5.35;;
57111;SDS011;42992;49.084;19.300;2022-12-05T02:09:37;8.60;;;5.38;;
57111;SDS011;42992;49.084;19.300;2022-12-05T02:12:02;8.73;;;5.47;;
57111;SDS011;42992;49.084;19.300;2022-12-05T02:25:05;9.63;;;5.30;;
57111;SDS011;42992;49.084;19.300;2022-12-05T02:35:03;8.02;;;4.70;;
57111;SDS011;42992;49.084;19.300;2022-12-05T02:37:38;9.52;;;5.25;;
57111;SDS011;42992;49.084;19.300;2022-12-05T02:40:14;8.05;;;5.10;;
57111;SDS011;42992;49.084;19.300;2022-12-05T02:42:48;8.13;;;5.30;;
57111;SDS011;42992;49.084;19.300;2022-12-05T02:45:15;8.65;;;5.38;;
57111;SDS011;42992;49.084;19.300;2022-12-05T02:47:46;10.95;;;5.60;;
57111;SDS011;42992;49.084;19.300;2022-12-05T02:50:14;9.60;;;5.68;;
57111;SDS011;42992;49.084;19.300;2022-12-05T02:52:41;10.27;;;5.20;;
57111;SDS011;42992;49.084;19.300;2022-12-05T02:55:07;7.95;;;5.43;;
57111;SDS011;42992;49.084;19.300;2022-12-05T02:57:34;12.95;;;6.07;;
57111;SDS011;42992;49.084;19.300;2022-12-05T03:00:00;8.48;;;5.47;;
57111;SDS011;42992;49.084;19.300;2022-12-05T03:02:27;8.82;;;5.28;;
57111;SDS011;42992;49.084;19.300;2022-12-05T03:04:55;10.38;;;6.22;;
57111;SDS011;42992;49.084;19.300;2022-12-05T03:07:22;10.50;;;5.65;;
57111;SDS011;42992;49.084;19.300;2022-12-05T03:09:50;9.40;;;5.70;;
57111;SDS011;42992;49.084;19.300;2022-12-05T03:12:27;8.27;;;5.30;;
57111;SDS011;42992;49.084;19.300;2022-12-05T03:14:59;12.27;;;5.60;;
57111;SDS011;42992;49.084;19.300;2022-12-05T03:17:30;13.68;;;6.05;;
57111;SDS011;42992;49.084;19.300;2022-12-05T03:20:17;8.68;;;5.80;;
57111;SDS011;42992;49.084;19.300;2022-12-05T03:34:07;10.77;;;5.00;;
57111;SDS011;42992;49.084;19.300;2022-12-05T03:36:37;7.82;;;4.85;;
57111;SDS011;42992;49.084;19.300;2022-12-05T03:41:45;7.22;;;4.28;;
57111;SDS011;42992;49.084;19.300;2022-12-05T03:44:17;7.78;;;4.30;;
57111;SDS011;42992;49.084;19.300;2022-12-05T03:46:51;7.88;;;4.53;;
57111;SDS011;42992;49.084;19.300;2022-12-05T03:51:48;6.57;;;4.22;;
57111;SDS011;42992;49.084;19.300;2022-12-05T03:54:17;7.05;;;4.30;;
57111;SDS011;42992;49.084;19.300;2022-12-05T03:56:56;8.20;;;4.22;;
57111;SDS011;42992;49.084;19.300;2022-12-05T03:59:58;10.02;;;4.57;;
57111;SDS011;42992;49.084;19.300;2022-12-05T04:02:17;7.30;;;4.57;;
57111;SDS011;42992;49.084;19.300;2022-12-05T04:04:47;10.82;;;5.70;;
57111;SDS011;42992;49.084;19.300;2022-12-05T04:07:13;9.40;;;5.53;;
57111;SDS011;42992;49.084;19.300;2022-12-05T04:09:44;8.88;;;5.03;;
57111;SDS011;42992;49.084;19.300;2022-12-05T04:24:28;8.63;;;4.68;;
57111;SDS011;42992;49.084;19.300;2022-12-05T04:29:43;7.50;;;4.13;;
57111;SDS011;42992;49.084;19.300;2022-12-05T04:32:12;8.93;;;4.47;;
57111;SDS011;42992;49.084;19.300;2022-12-05T04:34:38;8.73;;;4.13;;
57111;SDS011;42992;49.084;19.300;2022-12-05T04:37:08;7.60;;;4.15;;
57111;SDS011;42992;49.084;19.300;2022-12-05T04:39:36;8.85;;;3.70;;
57111;SDS011;42992;49.084;19.300;2022-12-05T04:42:04;5.95;;;3.60;;
57111;SDS011;42992;49.084;19.300;2022-12-05T04:44:33;6.28;;;3.55;;
57111;SDS011;42992;49.084;19.300;2022-12-05T04:47:01;5.97;;;3.63;;
57111;SDS011;42992;49.084;19.300;2022-12-05T04:49:27;6.75;;;4.10;;
57111;SDS011;42992;49.084;19.300;2022-12-05T04:51:54;6.65;;;3.75;;
57111;SDS011;42992;49.084;19.300;2022-12-05T04:54:23;8.23;;;3.80;;
57111;SDS011;42992;49.084;19.300;2022-12-05T04:56:52;7.70;;;4.28;;
57111;SDS011;42992;49.084;19.300;2022-12-05T05:00:11;7.50;;;4.32;;
57111;SDS011;42992;49.084;19.300;2022-12-05T05:02:47;10.07;;;4.53;;
57111;SDS011;42992;49.084;19.300;2022-12-05T05:05:15;12.70;;;5.32;;
57111;SDS011;42992;49.084;19.300;2022-12-05T05:10:22;8.80;;;4.88;;
57111;SDS011;42992;49.084;19.300;2022-12-05T06:06:46;9.05;;;4.93;;
57111;SDS011;42992;49.084;19.300;2022-12-05T06:21:48;10.60;;;4.82;;
57111;SDS011;42992;49.084;19.300;2022-12-05T09:22:36;7.30;;;4.68;;
57111;SDS011;42992;49.084;19.300;2022-12-05T11:02:51;12.05;;;6.20;;
57111;SDS011;42992;49.084;19.300;2022-12-05T11:05:34;9.55;;;6.13;;
57111;SDS011;42992;49.084;19.300;2022-12-05T11:08:16;9.57;;;6.05;;
57111;SDS011;42992;49.084;19.300;2022-12-05T11:11:01;9.15;;;5.78;;
57111;SDS011;42992;49.084;19.300;2022-12-05T11:16:49;16.20;;;5.30;;
57111;SDS011;42992;49.084;19.300;2022-12-05T11:22:40;9.57;;;5.90;;
57111;SDS011;42992;49.084;19.300;2022-12-05T11:39:40;9.23;;;5.55;;
57111;SDS011;42992;49.084;19.300;2022-12-05T12:19:59;10.55;;;5.85;;
57111;SDS011;42992;49.084;19.300;2022-12-05T13:44:04;8.90;;;5.43;;
57111;SDS011;42992;49.084;19.300;2022-12-05T13:46:46;12.18;;;7.05;;
57111;SDS011;42992;49.084;19.300;2022-12-05T13:49:34;9.30;;;5.80;;
57111;SDS011;42992;49.084;19.300;2022-12-05T13:54:43;9.25;;;5.88;;
57111;SDS011;42992;49.084;19.300;2022-12-05T14:00:29;13.38;;;7.60;;
57111;SDS011;42992;49.084;19.300;2022-12-05T14:06:02;10.38;;;5.93;;
57111;SDS011;42992;49.084;19.300;2022-12-05T14:14:06;10.63;;;6.85;;
57111;SDS011;42992;49.084;19.300;2022-12-05T14:31:01;15.05;;;8.18;;
57111;SDS011;42992;49.084;19.300;2022-12-05T14:33:42;12.55;;;7.88;;
57111;SDS011;42992;49.084;19.300;2022-12-05T14:36:11;13.80;;;8.02;;
57111;SDS011;42992;49.084;19.300;2022-12-05T15:07:54;15.90;;;8.85;;
57111;SDS011;42992;49.084;19.300;2022-12-05T15:10:36;16.10;;;9.63;;
57111;SDS011;42992;49.084;19.300;2022-12-05T15:40:44;16.20;;;8.52;;
57111;SDS011;42992;49.084;19.300;2022-12-05T15:46:30;19.15;;;10.80;;
57111;SDS011;42992;49.084;19.300;2022-12-05T15:58:34;29.50;;;12.38;;
57111;SDS011;42992;49.084;19.300;2022-12-05T16:01:19;16.73;;;9.80;;
57111;SDS011;42992;49.084;19.300;2022-12-05T16:03:55;15.30;;;8.00;;
57111;SDS011;42992;49.084;19.300;2022-12-05T16:06:29;15.30;;;7.55;;
57111;SDS011;42992;49.084;19.300;2022-12-05T16:12:26;13.27;;;8.38;;
57111;SDS011;42992;49.084;19.300;2022-12-05T16:48:30;14.73;;;9.00;;
57111;SDS011;42992;49.084;19.300;2022-12-05T16:54:34;15.52;;;8.60;;
57111;SDS011;42992;49.084;19.300;2022-12-05T17:43:15;17.17;;;8.70;;
57111;SDS011;42992;49.084;19.300;2022-12-05T17:45:41;12.88;;;7.22;;
57111;SDS011;42992;49.084;19.300;2022-12-05T17:48:21;16.73;;;8.85;;
57111;SDS011;42992;49.084;19.300;2022-12-05T17:50:47;17.98;;;10.05;;
57111;SDS011;42992;49.084;19.300;2022-12-05T17:53:38;14.70;;;9.15;;
57111;SDS011;42992;49.084;19.300;2022-12-05T18:01:57;16.42;;;8.45;;
57111;SDS011;42992;49.084;19.300;2022-12-05T18:04:24;17.15;;;7.53;;
57111;SDS011;42992;49.084;19.300;2022-12-05T18:07:30;15.82;;;8.82;;
57111;SDS011;42992;49.084;19.300;2022-12-05T18:13:06;16.40;;;8.95;;
57111;SDS011;42992;49.084;19.300;2022-12-05T18:15:33;14.77;;;7.82;;
57111;SDS011;42992;49.084;19.300;2022-12-05T18:18:03;12.88;;;8.23;;
57111;SDS011;42992;49.084;19.300;2022-12-05T18:23:34;11.75;;;6.82;;
57111;SDS011;42992;49.084;19.300;2022-12-05T18:26:03;12.68;;;7.50;;
57111;SDS011;42992;49.084;19.300;2022-12-05T18:28:30;13.35;;;8.13;;
57111;SDS011;42992;49.084;19.300;2022-12-05T18:31:18;11.10;;;6.45;;
57111;SDS011;42992;49.084;19.300;2022-12-05T18:33:51;12.52;;;8.25;;
57111;SDS011;42992;49.084;19.300;2022-12-05T18:36:19;11.02;;;6.70;;
57111;SDS011;42992;49.084;19.300;2022-12-05T18:38:49;15.63;;;7.88;;
57111;SDS011;42992;49.084;19.300;2022-12-05T18:41:21;13.38;;;7.15;;
57111;SDS011;42992;49.084;19.300;2022-12-05T18:46:52;13.52;;;8.18;;
57111;SDS011;42992;49.084;19.300;2022-12-05T18:49:58;15.73;;;8.85;;
57111;SDS011;42992;49.084;19.300;2022-12-05T18:52:50;12.65;;;7.68;;
57111;SDS011;42992;49.084;19.300;2022-12-05T18:58:09;10.30;;;5.68;;
57111;SDS011;42992;49.084;19.300;2022-12-05T19:03:19;8.55;;;5.07;;
57111;SDS011;42992;49.084;19.300;2022-12-05T19:08:58;10.60;;;5.03;;
57111;SDS011;42992;49.084;19.300;2022-12-05T19:11:26;9.07;;;5.47;;
57111;SDS011;42992;49.084;19.300;2022-12-05T19:16:59;10.43;;;6.40;;
57111;SDS011;42992;49.084;19.300;2022-12-05T19:19:25;12.25;;;6.50;;
57111;SDS011;42992;49.084;19.300;2022-12-05T19:21:56;12.07;;;6.30;;
57111;SDS011;42992;49.084;19.300;2022-12-05T19:24:24;12.05;;;6.80;;
57111;SDS011;42992;49.084;19.300;2022-12-05T19:26:58;11.27;;;6.60;;
57111;SDS011;42992;49.084;19.300;2022-12-05T19:44:38;12.73;;;5.85;;
57111;SDS011;42992;49.084;19.300;2022-12-05T20:19:34;6.68;;;3.10;;
57111;SDS011;42992;49.084;19.300;2022-12-05T20:22:01;5.35;;;2.83;;
57111;SDS011;42992;49.084;19.300;2022-12-05T20:24:44;4.60;;;2.50;;
57111;SDS011;42992;49.084;19.300;2022-12-05T20:33:59;11.65;;;6.45;;
57111;SDS011;42992;49.084;19.300;2022-12-05T20:36:30;8.60;;;4.53;;
57111;SDS011;42992;49.084;19.300;2022-12-05T20:41:48;7.90;;;4.05;;
57111;SDS011;42992;49.084;19.300;2022-12-05T20:44:16;6.70;;;3.60;;
57111;SDS011;42992;49.084;19.300;2022-12-05T20:49:16;4.57;;;2.28;;
57111;SDS011;42992;49.084;19.300;2022-12-05T20:51:51;6.35;;;2.92;;
57111;SDS011;42992;49.084;19.300;2022-12-05T21:00:33;6.28;;;3.15;;
57111;SDS011;42992;49.084;19.300;2022-12-05T21:03:44;5.15;;;2.63;;
57111;SDS011;42992;49.084;19.300;2022-12-05T21:06:14;4.18;;;2.42;;
57111;SDS011;42992;49.084;19.300;2022-12-05T21:08:42;3.80;;;2.25;;
57111;SDS011;42992;49.084;19.300;2022-12-05T21:11:17;3.78;;;2.15;;
57111;SDS011;42992;49.084;19.300;2022-12-05T21:13:54;5.45;;;2.60;;
57111;SDS011;42992;49.084;19.300;2022-12-05T21:16:21;6.70;;;3.05;;
57111;SDS011;42992;49.084;19.300;2022-12-05T21:18:52;5.85;;;2.90;;
57111;SDS011;42992;49.084;19.300;2022-12-05T21:21:29;7.90;;;3.33;;
57111;SDS011;42992;49.084;19.300;2022-12-05T21:24:03;6.20;;;3.35;;
57111;SDS011;42992;49.084;19.300;2022-12-05T21:26:31;5.25;;;2.47;;
57111;SDS011;42992;49.084;19.300;2022-12-05T21:32:12;5.28;;;2.63;;
57111;SDS011;42992;49.084;19.300;2022-12-05T21:35:16;5.40;;;2.42;;
57111;SDS011;42992;49.084;19.300;2022-12-05T21:37:51;4.28;;;2.30;;
57111;SDS011;42992;49.084;19.300;2022-12-05T21:40:41;5.93;;;2.50;;
57111;SDS011;42992;49.084;19.300;2022-12-05T22:14:13;4.38;;;2.53;;
57111;SDS011;42992;49.084;19.300;2022-12-05T22:16:42;4.60;;;2.30;;
57111;SDS011;42992;49.084;19.300;2022-12-05T22:20:04;5.35;;;2.10;;
57111;SDS011;42992;49.084;19.300;2022-12-05T22:22:55;6.18;;;1.95;;
57111;SDS011;42992;49.084;19.300;2022-12-05T22:25:25;4.65;;;2.38;;
57111;SDS011;42992;49.084;19.300;2022-12-05T22:30:32;4.78;;;2.17;;
57111;SDS011;42992;49.084;19.300;2022-12-05T22:40:56;4.70;;;2.08;;
57111;SDS011;42992;49.084;19.300;2022-12-05T22:49:45;4.70;;;1.90;;
57111;SDS011;42992;49.084;19.300;2022-12-05T22:52:50;5.30;;;2.35;;
